Terminal Aerodrome Forecast
Issued by NWS Amarillo, TX

Home | Current Version | Previous Version | Text Only | Print | Product List | Glossary On
Versions: 1 2 3 4 5 6 7 8 9 10 11 12 13 14 15
000
FTUS44 KAMA 231100
TAFGUY
TAF
KGUY 231120Z 2312/2412 19012KT P6SM SCT015 BKN200
     FM231500 21018G28KT P6SM SCT050 BKN200
     FM240100 20008KT P6SM SCT120 BKN200=

USA.gov is the U.S. government's official web portal to all federal, state and local government web resources and services.